SCEL/SCL METAR and TAF weather

Enter ICAO airport designator
Station Type Date Time Source
SCEL METAR 2022/06/26 08:00 UTC NOAA

SCEL 260800Z 00000KT 0400 FG VV002 02/02 Q1017 NOSIG


Station Type Date Time Source
SCEL Decoded METAR 2022/06/26 08:00 UTC NOAA

Pudahuel, Chile (SCEL) 33-23S 070-47W 476M
Jun 26, 2022 - 04:00 AM EDT / 2022.06.26 0800 UTC
Wind: Calm:0
Visibility: less than 1 mile:0
Sky conditions: obscured
Weather: fog
Temperature: 35 F (2 C)
Dew Point: 35 F (2 C)
Relative Humidity: 100%
Pressure (altimeter): 30.03 in. Hg (1017 hPa)
ob: SCEL 260800Z 00000KT 0400 FG VV002 02/02 Q1017 NOSIG
cycle: 8

Station Type Date Time Source
SCEL TAF 2022/06/26 09:24 UTC NOAA

TAF
AMD SCEL 260814Z 2609/2706 16004KT 1500 BR SCT003 TX14/2619Z TN02/2610Z
TEMPO 2609/2613 VRB02KT 0300 BCFG BKN002
BECMG 2612/2614 3500 BR FEW005
BECMG 2614/2616 18006KT 5000 HZ NSC
BECMG 2618/2620 9999 FEW050

Example: see airport list